Doucette, Texas
Current Conditions -  °F | °C
As of 10:35 AM on Sunday 21 Dec 2014 (Local Time) from KJAS Reporting Station
Overcast Overcast  
Wind Chill: 44°   Ceiling: 500
Heat Index: 46°   Visibility: 7mi
Dew Point: 44°   Wind: 5mph
Humidity: 94%   Direction: 80°E
Pressure: 30.15"   Gusts: NA
Location:  30.82°N, 94.43°W
Report Text: KJAS 211635Z AUTO 08004KT 7SM OVC005 08/07 A3015 RMK AO2 T00770068
Loading
Personal Weather Stations






























Interactive Weather Map New forecast layout! Learn more

10-Day Weather Forecast

Advertisements
Track Severe Weather on mobile